createdAt,value
2022-11-27T10:00:30.521Z,4.73
2022-11-27T10:05:26.841Z,5.37
2022-11-27T10:10:34.652Z,5.40
2022-11-27T10:15:38.543Z,6.60
2022-11-27T10:20:40.057Z,5.40
2022-11-27T10:25:41.088Z,6.50
2022-11-27T10:30:40.862Z,6.90
2022-11-27T10:35:34.578Z,6.80
2022-11-27T10:40:32.672Z,4.70
2022-11-27T10:45:31.200Z,4.80
2022-11-27T10:50:26.697Z,3.57
2022-11-27T10:55:29.913Z,3.40
2022-11-27T11:00:25.217Z,3.27
2022-11-27T11:05:45.047Z,2.90
2022-11-27T11:10:45.044Z,3.30
2022-11-27T11:15:51.952Z,3.50
2022-11-27T11:20:48.673Z,3.70
2022-11-27T11:25:52.112Z,2.80
2022-11-27T11:30:58.696Z,2.70
2022-11-27T11:35:57.957Z,3.10
2022-11-27T11:41:02.691Z,3.23
2022-11-27T11:45:57.354Z,3.23
2022-11-27T11:50:56.006Z,2.87
2022-11-27T11:56:05.190Z,3.20
2022-11-27T12:01:26.617Z,3.10
2022-11-27T12:06:35.869Z,3.43
2022-11-27T12:11:40.062Z,3.40
2022-11-27T12:16:43.305Z,3.25
2022-11-27T12:21:45.449Z,3.25
2022-11-27T12:26:51.945Z,2.83
2022-11-27T12:32:15.844Z,2.43
2022-11-27T12:37:23.648Z,2.83
2022-11-27T12:42:25.556Z,2.70
2022-11-27T12:47:24.515Z,2.90
2022-11-27T12:52:20.659Z,3.17
2022-11-27T12:57:20.390Z,5.10
2022-11-27T13:02:28.214Z,9.07
2022-11-27T13:07:30.020Z,3.22
2022-11-27T13:12:30.945Z,2.90
2022-11-27T13:17:31.328Z,2.70
2022-11-27T13:22:32.322Z,3.00
2022-11-27T13:27:29.556Z,2.90
2022-11-27T13:32:25.349Z,3.47
2022-11-27T13:37:31.384Z,3.10
2022-11-27T13:42:28.773Z,3.00
2022-11-27T13:47:27.603Z,3.77
2022-11-27T13:52:22.866Z,4.23
2022-11-27T13:57:18.795Z,3.30
2022-11-27T14:02:14.067Z,4.10
2022-11-27T14:07:11.856Z,4.10
2022-11-27T14:12:19.911Z,4.83
2022-11-27T14:17:27.632Z,3.87
2022-11-27T14:22:44.318Z,4.73
2022-11-27T14:27:51.212Z,4.87
2022-11-27T14:32:49.185Z,5.50
2022-11-27T14:37:43.512Z,5.63
2022-11-27T14:42:39.326Z,5.87
2022-11-27T14:47:34.463Z,8.13
2022-11-27T14:52:29.956Z,8.70
2022-11-27T14:57:26.724Z,11.00
2022-11-27T15:02:27.567Z,14.53
2022-11-27T15:07:26.932Z,13.83
2022-11-27T15:12:24.482Z,16.17
2022-11-27T15:17:22.770Z,16.47
2022-11-27T15:22:18.690Z,13.33
2022-11-27T15:27:19.960Z,13.70
2022-11-27T15:32:23.705Z,13.33
2022-11-27T15:37:24.224Z,10.80
2022-11-27T15:42:18.912Z,10.23
2022-11-27T15:47:25.288Z,9.07
2022-11-27T15:52:19.078Z,12.10
2022-11-27T15:57:13.051Z,11.40
2022-11-27T16:02:06.844Z,8.20
2022-11-27T16:07:01.992Z,8.40
2022-11-27T16:11:55.624Z,20.40
2022-11-27T16:16:49.198Z,10.87
2022-11-27T16:21:43.667Z,14.00
2022-11-27T16:26:39.555Z,12.07
2022-11-27T16:31:33.466Z,10.90
2022-11-27T16:36:29.673Z,9.60
2022-11-27T16:41:25.322Z,13.00
2022-11-27T16:46:23.920Z,13.20
2022-11-27T16:51:20.124Z,11.80
2022-11-27T16:56:15.856Z,12.63
2022-11-27T17:01:10.682Z,10.33
2022-11-27T17:06:10.740Z,11.33
2022-11-27T17:11:09.593Z,11.63
2022-11-27T17:16:03.621Z,21.47
2022-11-27T17:21:02.929Z,27.63
